createdAt,value
2022-11-29T00:01:20.401Z,21.23
2022-11-29T00:03:48.125Z,20.45
2022-11-29T00:06:20.346Z,22.85
2022-11-29T00:08:47.628Z,21.58
2022-11-29T00:11:54.462Z,22.05
2022-11-29T00:14:21.776Z,20.58
2022-11-29T00:16:53.343Z,20.63
2022-11-29T00:19:20.240Z,19.85
2022-11-29T00:21:46.827Z,21.08
2022-11-29T00:24:13.578Z,20.70
2022-11-29T00:26:40.200Z,20.05
2022-11-29T00:29:06.638Z,19.67
2022-11-29T00:31:33.746Z,21.65
2022-11-29T00:34:02.906Z,19.33
2022-11-29T00:36:30.101Z,19.38
2022-11-29T00:38:56.655Z,18.63
2022-11-29T00:41:23.134Z,20.00
2022-11-29T00:43:49.556Z,19.90
2022-11-29T00:46:16.362Z,18.60
2022-11-29T00:48:42.887Z,20.83
2022-11-29T00:51:12.296Z,18.63
2022-11-29T00:53:44.742Z,18.25
2022-11-29T00:56:12.069Z,19.05
2022-11-29T00:58:39.038Z,19.85
2022-11-29T01:01:05.972Z,18.77
2022-11-29T01:03:32.693Z,20.25
2022-11-29T01:06:08.683Z,20.38
2022-11-29T01:08:35.482Z,17.75
2022-11-29T01:11:11.636Z,18.05
2022-11-29T01:13:38.565Z,17.75
2022-11-29T01:16:07.782Z,17.35
2022-11-29T01:18:34.882Z,18.48
2022-11-29T01:21:11.250Z,17.35
2022-11-29T01:23:38.165Z,18.13
2022-11-29T01:26:25.969Z,16.92
2022-11-29T01:28:54.315Z,18.48
2022-11-29T01:31:24.924Z,17.77
2022-11-29T01:33:55.619Z,16.42
2022-11-29T01:36:22.646Z,17.45
2022-11-29T01:38:49.094Z,17.02
2022-11-29T01:41:21.119Z,16.92
2022-11-29T01:43:58.823Z,15.95
2022-11-29T01:46:26.391Z,16.80
2022-11-29T01:48:57.276Z,16.42
2022-11-29T01:51:25.375Z,16.20
2022-11-29T01:53:51.874Z,16.88
2022-11-29T01:56:18.493Z,16.83
2022-11-29T01:58:45.401Z,18.08
2022-11-29T02:01:12.857Z,17.35
2022-11-29T02:03:39.840Z,15.07
2022-11-29T02:06:07.715Z,16.77
2022-11-29T02:08:40.258Z,15.93
2022-11-29T02:11:35.696Z,14.70
2022-11-29T02:14:02.097Z,16.50
2022-11-29T02:16:56.923Z,16.42
2022-11-29T02:19:51.409Z,16.17
2022-11-29T02:22:20.833Z,15.57
2022-11-29T02:25:05.926Z,14.60
2022-11-29T02:27:47.331Z,15.07
2022-11-29T02:30:32.684Z,16.27
2022-11-29T02:33:26.791Z,16.23
2022-11-29T02:36:15.105Z,14.80
2022-11-29T02:39:00.191Z,16.85
2022-11-29T02:42:04.551Z,15.82
2022-11-29T02:44:40.002Z,14.32
2022-11-29T02:47:24.785Z,15.38
2022-11-29T02:49:54.025Z,14.68
2022-11-29T02:52:41.606Z,12.75
2022-11-29T02:55:29.509Z,14.20
2022-11-29T02:58:02.761Z,15.82
2022-11-29T03:00:29.674Z,14.90
2022-11-29T03:03:11.887Z,15.05
2022-11-29T03:06:15.943Z,15.23
2022-11-29T03:08:48.380Z,15.35
2022-11-29T03:11:47.309Z,15.40
2022-11-29T03:14:24.757Z,15.10
2022-11-29T03:16:57.214Z,14.45
2022-11-29T03:19:54.193Z,13.38
2022-11-29T03:22:39.070Z,14.05
2022-11-29T03:25:24.258Z,14.07
2022-11-29T03:27:57.894Z,13.48
2022-11-29T03:30:24.649Z,12.88
2022-11-29T03:33:14.575Z,13.13
2022-11-29T03:35:48.129Z,14.55
2022-11-29T03:38:44.219Z,14.60
2022-11-29T03:41:25.834Z,15.38
2022-11-29T03:44:00.546Z,14.05
2022-11-29T03:46:42.497Z,14.60
2022-11-29T03:49:41.464Z,14.15
2022-11-29T03:52:27.496Z,13.48
2022-11-29T03:55:09.004Z,15.13
2022-11-29T03:58:00.131Z,14.02
2022-11-29T04:00:41.111Z,14.63
2022-11-29T04:03:29.723Z,11.65
2022-11-29T04:06:14.840Z,12.85
2022-11-29T04:09:12.408Z,13.05
2022-11-29T04:11:58.851Z,13.80
2022-11-29T04:14:33.837Z,15.02
2022-11-29T04:17:37.951Z,12.80
2022-11-29T04:20:26.434Z,13.40
2022-11-29T04:23:19.021Z,11.60
2022-11-29T04:26:21.386Z,12.60
2022-11-29T04:29:06.379Z,14.45
2022-11-29T04:31:32.945Z,11.27
2022-11-29T04:34:18.592Z,12.85
2022-11-29T04:36:56.991Z,13.13
2022-11-29T04:39:32.088Z,13.20
2022-11-29T04:42:24.416Z,13.32
2022-11-29T04:44:53.984Z,12.57
2022-11-29T04:47:48.595Z,12.60
2022-11-29T04:50:57.564Z,12.98
2022-11-29T04:53:47.843Z,11.90
2022-11-29T04:56:23.114Z,12.23
2022-11-29T04:58:55.273Z,12.90
2022-11-29T05:01:33.508Z,11.23
2022-11-29T05:04:20.136Z,13.02
2022-11-29T05:06:55.694Z,12.57
2022-11-29T05:09:31.905Z,11.93
2022-11-29T05:12:35.899Z,11.80
2022-11-29T05:15:45.073Z,12.60
2022-11-29T05:18:11.509Z,12.75
2022-11-29T05:21:08.821Z,13.57
2022-11-29T05:23:51.085Z,13.13
2022-11-29T05:26:36.929Z,12.25
2022-11-29T05:29:08.620Z,12.82
2022-11-29T05:31:56.812Z,13.45
2022-11-29T05:34:46.777Z,12.75
2022-11-29T05:37:42.693Z,12.25
2022-11-29T05:40:20.605Z,12.20
2022-11-29T05:43:14.954Z,12.77
2022-11-29T05:45:52.440Z,12.43
2022-11-29T05:48:32.865Z,11.50
2022-11-29T05:51:11.635Z,11.98
2022-11-29T05:54:00.171Z,11.52
2022-11-29T05:56:59.160Z,12.50
2022-11-29T05:59:30.170Z,12.73
2022-11-29T06:02:15.395Z,11.45
2022-11-29T06:04:57.247Z,10.82
2022-11-29T06:07:38.993Z,11.55
2022-11-29T06:10:06.770Z,10.55
2022-11-29T06:12:35.904Z,10.40
2022-11-29T06:15:13.686Z,10.13
2022-11-29T06:20:35.566Z,10.15
2022-11-29T06:23:20.999Z,11.52
2022-11-29T06:26:29.191Z,9.50
2022-11-29T06:29:34.216Z,10.93
2022-11-29T06:32:11.130Z,10.52
2022-11-29T06:34:48.998Z,10.13
2022-11-29T06:37:25.682Z,9.63
2022-11-29T06:39:53.709Z,10.15
2022-11-29T06:42:20.162Z,10.38
2022-11-29T06:44:47.477Z,9.55
2022-11-29T06:47:30.568Z,10.43
2022-11-29T06:50:35.906Z,10.57
2022-11-29T06:53:08.408Z,9.45
2022-11-29T06:55:56.893Z,9.75
2022-11-29T06:58:49.516Z,9.55
2022-11-29T07:01:43.942Z,10.27
2022-11-29T07:04:25.635Z,10.23
2022-11-29T07:06:52.488Z,9.18
2022-11-29T07:09:22.403Z,9.48
2022-11-29T07:11:49.125Z,10.55
2022-11-29T07:14:15.872Z,9.48
2022-11-29T07:16:57.038Z,8.95
2022-11-29T07:19:32.819Z,10.35
2022-11-29T07:22:09.886Z,9.25
2022-11-29T07:25:05.485Z,8.68
2022-11-29T07:27:53.624Z,9.90
2022-11-29T07:30:24.710Z,10.32
2022-11-29T07:33:00.732Z,9.38
2022-11-29T07:35:45.722Z,9.38
2022-11-29T07:38:21.992Z,10.15
2022-11-29T07:41:00.628Z,10.30
2022-11-29T07:43:35.848Z,9.70
2022-11-29T07:46:02.380Z,10.25
2022-11-29T07:48:28.841Z,11.00
2022-11-29T07:50:56.158Z,9.77
2022-11-29T07:53:23.618Z,9.27
2022-11-29T07:55:50.818Z,9.15
2022-11-29T07:58:18.305Z,8.80
2022-11-29T08:00:45.598Z,10.43
2022-11-29T08:03:12.449Z,9.82
2022-11-29T08:05:39.045Z,10.43
2022-11-29T08:08:06.315Z,9.10
2022-11-29T08:10:32.958Z,9.80
2022-11-29T08:12:59.413Z,9.18
2022-11-29T08:15:26.140Z,9.68
2022-11-29T08:17:53.204Z,7.70
2022-11-29T08:20:20.082Z,9.98
2022-11-29T08:22:57.390Z,8.57
2022-11-29T08:25:24.470Z,10.43
2022-11-29T08:27:51.725Z,9.13
2022-11-29T08:30:22.002Z,9.07
2022-11-29T08:32:52.039Z,9.98
2022-11-29T08:35:23.787Z,8.52
2022-11-29T08:37:50.644Z,12.40
2022-11-29T08:40:17.418Z,8.88
2022-11-29T08:42:44.036Z,11.35
2022-11-29T08:45:11.353Z,11.55
2022-11-29T08:47:38.976Z,13.73
2022-11-29T08:50:14.153Z,13.75
2022-11-29T08:53:05.313Z,12.07
2022-11-29T08:55:38.832Z,13.07
2022-11-29T08:58:07.863Z,12.57
2022-11-29T09:00:34.888Z,100.90
2022-11-29T09:03:21.669Z,74.00
2022-11-29T09:05:48.106Z,29.33
2022-11-29T09:08:14.635Z,41.30
2022-11-29T09:10:42.119Z,39.92
2022-11-29T09:13:09.995Z,38.08
2022-11-29T09:15:37.908Z,37.63
2022-11-29T09:18:05.731Z,38.47
2022-11-29T09:20:34.004Z,41.03
2022-11-29T09:23:00.903Z,39.00
2022-11-29T09:25:28.715Z,41.53
2022-11-29T09:27:58.363Z,39.90
2022-11-29T09:30:24.961Z,39.65
2022-11-29T09:32:51.501Z,43.25
2022-11-29T09:35:18.070Z,42.72
2022-11-29T09:37:44.632Z,42.40
2022-11-29T09:40:23.086Z,43.15
2022-11-29T09:42:58.133Z,44.25
2022-11-29T09:45:31.840Z,43.13
2022-11-29T09:48:16.706Z,45.30
2022-11-29T09:51:00.976Z,46.13
2022-11-29T09:53:46.054Z,43.80
2022-11-29T09:56:23.428Z,46.00
2022-11-29T09:58:57.756Z,45.75
2022-11-29T10:01:32.327Z,46.58
2022-11-29T10:04:04.661Z,46.22
2022-11-29T10:06:32.683Z,47.00
2022-11-29T10:09:15.544Z,47.42
2022-11-29T10:11:50.341Z,48.83
2022-11-29T10:14:22.536Z,50.03
2022-11-29T10:17:03.984Z,70.90
2022-11-29T10:19:41.100Z,65.53
2022-11-29T10:22:25.355Z,76.10
2022-11-29T10:24:54.319Z,77.90
2022-11-29T10:27:23.697Z,83.47
2022-11-29T10:29:53.395Z,80.72
2022-11-29T10:32:23.170Z,73.43
2022-11-29T10:34:49.800Z,67.68
2022-11-29T10:37:19.480Z,67.40
2022-11-29T10:40:04.091Z,164.93
2022-11-29T10:42:49.718Z,270.25
2022-11-29T10:45:50.561Z,311.80
2022-11-29T10:48:19.635Z,409.73
2022-11-29T10:50:48.797Z,491.88
2022-11-29T10:53:24.285Z,470.92
2022-11-29T10:56:09.263Z,313.65
2022-11-29T10:58:36.250Z,270.60
2022-11-29T11:01:09.417Z,251.30
2022-11-29T11:03:53.127Z,242.85
2022-11-29T11:06:41.183Z,232.60
2022-11-29T11:09:16.553Z,221.07
2022-11-29T11:11:51.410Z,210.45
2022-11-29T11:14:31.546Z,209.57
2022-11-29T11:17:26.204Z,202.85
2022-11-29T11:20:05.856Z,191.82
2022-11-29T11:22:33.675Z,224.05
2022-11-29T11:25:25.774Z,402.35
2022-11-29T11:27:52.390Z,341.13
2022-11-29T11:30:28.531Z,501.08
2022-11-29T11:33:21.369Z,487.90
2022-11-29T11:36:14.356Z,495.77
2022-11-29T11:39:11.992Z,603.70
2022-11-29T11:42:01.069Z,604.60
2022-11-29T11:44:50.408Z,525.50
2022-11-29T11:47:20.893Z,555.83
2022-11-29T11:49:54.059Z,675.13
2022-11-29T11:52:24.847Z,637.30
2022-11-29T11:54:58.607Z,630.83
2022-11-29T11:57:26.385Z,598.28
2022-11-29T12:00:03.380Z,597.60
2022-11-29T12:02:38.926Z,663.72
2022-11-29T12:05:13.173Z,603.38
2022-11-29T12:10:39.767Z,535.03
2022-11-29T12:13:17.293Z,513.05
2022-11-29T12:15:47.224Z,512.75
2022-11-29T12:18:20.905Z,503.65
2022-11-29T12:21:06.214Z,483.77
2022-11-29T12:23:40.447Z,471.10
2022-11-29T12:26:55.365Z,466.48
2022-11-29T12:29:15.996Z,540.05
2022-11-29T12:31:54.969Z,507.83
2022-11-29T12:34:47.156Z,522.63
2022-11-29T12:37:30.233Z,526.33
2022-11-29T12:39:57.393Z,553.60
2022-11-29T12:42:40.449Z,559.70
2022-11-29T12:48:44.539Z,613.60
2022-11-29T12:51:29.743Z,624.33
2022-11-29T12:54:31.816Z,601.65
2022-11-29T12:57:14.792Z,677.38
2022-11-29T12:59:50.844Z,677.92
2022-11-29T13:02:48.605Z,672.67
2022-11-29T13:05:56.961Z,688.10
2022-11-29T13:08:36.490Z,653.70
2022-11-29T13:11:33.256Z,616.67
2022-11-29T13:14:42.192Z,597.83
2022-11-29T13:17:57.858Z,584.72
2022-11-29T13:20:51.968Z,627.35
2022-11-29T13:23:45.731Z,687.50
2022-11-29T13:26:26.112Z,680.75
2022-11-29T13:28:52.843Z,738.92
2022-11-29T13:31:22.521Z,733.13
2022-11-29T13:33:55.682Z,742.95
2022-11-29T13:36:29.488Z,689.80
2022-11-29T13:39:15.541Z,648.85
2022-11-29T13:41:51.856Z,637.03
2022-11-29T13:44:37.013Z,635.05
2022-11-29T13:47:14.699Z,620.88
2022-11-29T13:50:05.277Z,610.60
2022-11-29T13:52:38.117Z,605.40
2022-11-29T13:58:14.895Z,575.83
2022-11-29T14:00:47.780Z,570.92
2022-11-29T14:03:23.283Z,570.63
2022-11-29T14:05:52.522Z,549.90
2022-11-29T14:08:48.115Z,542.47
2022-11-29T14:11:31.633Z,535.03
2022-11-29T14:14:18.470Z,525.13
2022-11-29T14:16:52.714Z,513.50
2022-11-29T14:19:30.081Z,514.63
2022-11-29T14:22:01.718Z,505.63
2022-11-29T14:24:37.094Z,499.88
2022-11-29T14:27:06.660Z,495.52
2022-11-29T14:29:52.686Z,482.20
2022-11-29T14:32:49.261Z,483.85
2022-11-29T14:35:26.740Z,477.45
2022-11-29T14:38:10.998Z,471.67
2022-11-29T14:40:40.167Z,469.15
2022-11-29T14:43:30.558Z,466.90
2022-11-29T14:46:29.272Z,459.80
2022-11-29T14:48:56.125Z,449.48
2022-11-29T14:51:28.679Z,449.02
2022-11-29T14:54:19.532Z,439.20
2022-11-29T14:56:47.318Z,441.17
2022-11-29T14:59:45.522Z,427.48
2022-11-29T15:02:32.826Z,424.75
2022-11-29T15:05:18.599Z,426.92
2022-11-29T15:07:51.422Z,407.77
2022-11-29T15:12:48.776Z,396.42
2022-11-29T15:15:44.797Z,399.15
2022-11-29T15:18:48.478Z,385.38
2022-11-29T15:21:57.943Z,379.00
2022-11-29T15:24:28.579Z,372.50
2022-11-29T15:26:56.586Z,357.50
2022-11-29T15:29:23.421Z,360.50
2022-11-29T15:31:53.698Z,349.30
2022-11-29T15:34:29.432Z,362.67
2022-11-29T15:36:55.866Z,347.60
2022-11-29T15:39:40.275Z,346.42
2022-11-29T15:42:11.347Z,339.77
2022-11-29T15:44:44.337Z,335.55
2022-11-29T15:47:24.665Z,325.80
2022-11-29T15:49:53.173Z,319.48
2022-11-29T15:52:28.725Z,322.67
2022-11-29T15:55:00.771Z,319.42
2022-11-29T15:57:35.609Z,318.33
2022-11-29T16:00:25.636Z,313.60
2022-11-29T16:02:59.855Z,306.40
2022-11-29T16:05:32.954Z,299.17
2022-11-29T16:08:20.527Z,299.50
2022-11-29T16:10:52.796Z,288.27
2022-11-29T16:13:31.626Z,293.25
2022-11-29T16:16:15.577Z,289.38
2022-11-29T16:18:45.070Z,269.70
2022-11-29T16:21:24.972Z,265.80
2022-11-29T16:23:51.610Z,269.25
2022-11-29T16:26:22.837Z,263.98
2022-11-29T16:28:51.798Z,258.88
2022-11-29T16:31:20.041Z,262.80
2022-11-29T16:33:49.105Z,257.58
2022-11-29T16:36:16.297Z,253.85
2022-11-29T16:38:49.285Z,248.27
2022-11-29T16:42:01.164Z,244.13
2022-11-29T16:44:39.524Z,241.85
2022-11-29T16:47:17.878Z,237.80
2022-11-29T16:49:45.025Z,235.95
2022-11-29T16:52:32.741Z,231.75
2022-11-29T16:54:59.908Z,224.70
2022-11-29T16:57:28.702Z,224.63
2022-11-29T16:59:55.240Z,224.95
2022-11-29T17:02:21.753Z,216.13
2022-11-29T17:04:50.743Z,215.57
2022-11-29T17:07:26.491Z,212.98
2022-11-29T17:09:53.489Z,213.30
2022-11-29T17:12:19.979Z,204.05
2022-11-29T17:14:46.766Z,206.55
2022-11-29T17:17:18.818Z,198.95
2022-11-29T17:19:45.371Z,193.68
2022-11-29T17:22:12.495Z,202.77
2022-11-29T17:24:42.315Z,194.52
2022-11-29T17:27:12.961Z,189.68
2022-11-29T17:29:39.411Z,194.38
2022-11-29T17:32:05.920Z,189.80
2022-11-29T17:34:33.317Z,182.68
2022-11-29T17:36:59.765Z,184.88
2022-11-29T17:39:26.294Z,178.52
2022-11-29T17:41:56.022Z,177.43
2022-11-29T17:44:25.365Z,175.55
2022-11-29T17:46:54.077Z,175.63
2022-11-29T17:49:20.704Z,174.98
2022-11-29T17:51:52.161Z,171.07
2022-11-29T17:54:22.787Z,168.50
2022-11-29T17:56:49.557Z,165.20
2022-11-29T17:59:16.130Z,163.88
2022-11-29T18:01:42.648Z,161.68
2022-11-29T18:04:09.279Z,159.65
2022-11-29T18:06:38.617Z,157.80
2022-11-29T18:09:07.471Z,155.23
2022-11-29T18:11:46.969Z,158.30
2022-11-29T18:14:17.976Z,148.43
2022-11-29T18:16:47.220Z,148.15
2022-11-29T18:19:16.495Z,141.38
2022-11-29T18:21:43.680Z,148.90
2022-11-29T18:24:10.827Z,141.65
2022-11-29T18:26:38.018Z,140.35
2022-11-29T18:29:05.909Z,140.23
2022-11-29T18:31:35.494Z,135.80
2022-11-29T18:34:06.831Z,129.18
2022-11-29T18:36:36.722Z,135.75
2022-11-29T18:39:09.233Z,127.43
2022-11-29T18:41:36.364Z,127.47
2022-11-29T18:44:08.245Z,127.80
2022-11-29T18:46:37.295Z,124.20
2022-11-29T18:49:06.210Z,121.90
2022-11-29T18:51:34.153Z,119.82
2022-11-29T18:54:01.060Z,117.85
2022-11-29T18:56:29.821Z,118.07
2022-11-29T18:58:59.045Z,116.05
2022-11-29T19:01:28.120Z,115.47
2022-11-29T19:03:56.723Z,113.38
2022-11-29T19:06:26.566Z,115.70
2022-11-29T19:08:53.611Z,108.78
2022-11-29T19:11:22.401Z,108.55
2022-11-29T19:13:57.618Z,107.20
2022-11-29T19:16:25.446Z,104.82
2022-11-29T19:18:54.648Z,104.05
2022-11-29T19:21:22.631Z,103.30
2022-11-29T19:23:54.483Z,100.13
2022-11-29T19:26:22.419Z,101.28
2022-11-29T19:28:49.443Z,100.45
2022-11-29T19:31:18.451Z,98.38
2022-11-29T19:33:45.774Z,98.90
2022-11-29T19:36:16.999Z,93.40
2022-11-29T19:38:47.645Z,94.10
2022-11-29T19:41:23.197Z,97.90
2022-11-29T19:43:50.416Z,92.95
2022-11-29T19:46:39.986Z,88.75
2022-11-29T19:49:08.320Z,90.90
2022-11-29T19:51:35.698Z,91.35
2022-11-29T19:54:05.008Z,87.00
2022-11-29T19:56:32.634Z,86.80
2022-11-29T19:59:02.489Z,85.53
2022-11-29T20:01:37.889Z,87.07
2022-11-29T20:04:07.437Z,82.70
2022-11-29T20:06:33.928Z,86.45
2022-11-29T20:09:00.494Z,82.78
2022-11-29T20:11:26.974Z,82.25
2022-11-29T20:13:59.061Z,82.85
2022-11-29T20:16:27.215Z,79.20
2022-11-29T20:18:54.417Z,79.72
2022-11-29T20:21:26.214Z,77.30
2022-11-29T20:24:04.809Z,80.70
2022-11-29T20:26:33.369Z,72.82
2022-11-29T20:29:00.331Z,74.38
2022-11-29T20:31:26.830Z,75.28
2022-11-29T20:33:54.919Z,72.32
2022-11-29T20:36:49.274Z,73.50
2022-11-29T20:39:44.413Z,72.05
2022-11-29T20:42:31.256Z,67.05
2022-11-29T20:45:00.222Z,72.43
2022-11-29T20:47:32.605Z,66.15
2022-11-29T20:49:59.547Z,69.00
2022-11-29T20:52:50.636Z,68.40
2022-11-29T20:55:17.991Z,63.00
2022-11-29T20:57:44.625Z,64.78
2022-11-29T21:00:12.818Z,63.33
2022-11-29T21:02:39.542Z,64.72
2022-11-29T21:05:07.188Z,61.95
2022-11-29T21:07:34.017Z,61.50
2022-11-29T21:10:01.601Z,63.67
2022-11-29T21:12:29.778Z,61.88
2022-11-29T21:14:56.682Z,61.17
2022-11-29T21:17:25.602Z,58.40
2022-11-29T21:19:56.906Z,59.72
2022-11-29T21:22:36.077Z,59.30
2022-11-29T21:25:14.202Z,57.13
2022-11-29T21:27:41.036Z,58.65
2022-11-29T21:30:17.954Z,56.53
2022-11-29T21:32:44.797Z,53.13
2022-11-29T21:35:11.387Z,53.63
2022-11-29T21:37:38.100Z,52.30
2022-11-29T21:40:05.531Z,53.45
2022-11-29T21:42:31.975Z,53.90
2022-11-29T21:44:58.764Z,52.25
2022-11-29T21:47:27.627Z,54.30
2022-11-29T21:49:54.808Z,50.33
2022-11-29T21:52:22.944Z,50.67
2022-11-29T21:54:50.138Z,49.60
2022-11-29T21:57:16.778Z,48.88
2022-11-29T21:59:43.217Z,50.17
2022-11-29T22:02:09.822Z,49.72
2022-11-29T22:04:36.354Z,47.40
2022-11-29T22:07:02.844Z,51.55
2022-11-29T22:09:29.297Z,46.72
2022-11-29T22:11:55.737Z,48.38
2022-11-29T22:14:22.277Z,45.72
2022-11-29T22:16:59.789Z,44.88
2022-11-29T22:19:28.761Z,46.38
2022-11-29T22:21:57.775Z,46.58
2022-11-29T22:24:27.729Z,43.53
2022-11-29T22:26:54.396Z,45.17
2022-11-29T22:29:21.597Z,42.28
2022-11-29T22:31:50.377Z,40.33
2022-11-29T22:34:16.960Z,40.85
2022-11-29T22:36:43.394Z,43.72
2022-11-29T22:39:10.032Z,42.10
2022-11-29T22:41:37.949Z,39.72
2022-11-29T22:44:05.019Z,40.53
2022-11-29T22:46:32.508Z,41.20
2022-11-29T22:49:00.562Z,41.53
2022-11-29T22:51:37.901Z,40.92
2022-11-29T22:54:06.905Z,41.30
2022-11-29T22:56:36.234Z,40.00
2022-11-29T22:59:03.292Z,39.72
2022-11-29T23:01:31.614Z,36.08
2022-11-29T23:04:00.193Z,38.63
2022-11-29T23:06:28.738Z,37.63
2022-11-29T23:08:58.129Z,36.55
2022-11-29T23:11:27.109Z,35.83
2022-11-29T23:13:54.062Z,37.75
2022-11-29T23:16:23.159Z,36.85
2022-11-29T23:18:50.241Z,37.35
2022-11-29T23:21:25.530Z,37.10
2022-11-29T23:23:56.352Z,35.17
2022-11-29T23:26:36.475Z,36.22
2022-11-29T23:29:04.464Z,36.00
2022-11-29T23:31:31.606Z,34.70
2022-11-29T23:33:58.178Z,36.00
2022-11-29T23:36:24.749Z,33.88
2022-11-29T23:38:51.389Z,35.25
2022-11-29T23:41:18.307Z,34.55
2022-11-29T23:43:44.753Z,33.38
2022-11-29T23:46:20.888Z,34.50
2022-11-29T23:48:47.491Z,33.67
2022-11-29T23:51:14.795Z,33.08
2022-11-29T23:53:41.820Z,33.38
2022-11-29T23:56:12.873Z,32.28
2022-11-29T23:58:39.548Z,32.78
